createdAt,value
2019-05-22T00:01:41.260Z,6.50
2019-05-22T00:06:45.297Z,6.13
2019-05-22T00:11:51.895Z,5.90
2019-05-22T00:16:56.434Z,5.83
2019-05-22T00:22:09.784Z,5.83
2019-05-22T00:27:15.230Z,5.90
2019-05-22T00:32:20.587Z,6.10
2019-05-22T00:37:25.663Z,5.60
2019-05-22T00:42:31.151Z,5.40
2019-05-22T00:47:36.517Z,5.20
2019-05-22T00:52:57.924Z,5.40
2019-05-22T00:58:07.955Z,5.77
2019-05-22T01:03:16.322Z,5.47
2019-05-22T01:08:21.461Z,5.27
2019-05-22T01:13:27.695Z,4.90
2019-05-22T01:18:32.890Z,5.33
2019-05-22T01:23:38.753Z,5.47
2019-05-22T01:28:42.955Z,5.40
2019-05-22T01:33:53.627Z,5.27
2019-05-22T01:39:03.800Z,4.87
2019-05-22T01:44:09.174Z,4.40
2019-05-22T01:49:13.164Z,5.03
2019-05-22T01:54:18.464Z,4.53
2019-05-22T01:59:23.208Z,4.90
2019-05-22T02:04:27.286Z,5.10
2019-05-22T02:09:33.802Z,4.70
2019-05-22T02:14:38.524Z,5.07
2019-05-22T02:19:43.044Z,5.50
2019-05-22T02:24:48.474Z,4.77
2019-05-22T02:29:55.244Z,4.83
2019-05-22T02:35:00.877Z,4.47
2019-05-22T02:40:07.355Z,4.80
2019-05-22T02:45:11.203Z,4.80
2019-05-22T02:50:16.631Z,4.60
2019-05-22T02:55:20.407Z,4.70
2019-05-22T03:00:24.222Z,4.63
2019-05-22T03:05:28.007Z,4.43
2019-05-22T03:10:32.606Z,4.50
2019-05-22T03:15:36.380Z,4.60
2019-05-22T03:20:40.176Z,4.50
2019-05-22T03:25:44.553Z,4.47
2019-05-22T03:30:48.771Z,4.60
2019-05-22T03:36:02.512Z,4.47
2019-05-22T03:41:07.139Z,4.03
2019-05-22T03:46:23.441Z,4.03
2019-05-22T03:51:27.246Z,4.40
2019-05-22T03:56:31.142Z,4.20
2019-05-22T04:01:35.236Z,3.60
2019-05-22T04:06:41.274Z,3.93
2019-05-22T04:11:46.395Z,4.00
2019-05-22T04:16:50.075Z,4.13
2019-05-22T04:21:53.887Z,4.30
2019-05-22T04:26:57.660Z,3.90
2019-05-22T04:32:19.111Z,4.70
2019-05-22T04:37:23.631Z,3.87
2019-05-22T04:42:28.203Z,4.33
2019-05-22T04:47:32.512Z,3.50
2019-05-22T04:52:36.431Z,3.90
2019-05-22T04:57:40.976Z,4.27
2019-05-22T05:02:45.029Z,3.90
2019-05-22T05:07:49.681Z,4.30
2019-05-22T05:12:55.584Z,4.00
2019-05-22T05:17:59.495Z,3.80
2019-05-22T05:23:03.471Z,3.30
2019-05-22T05:28:10.769Z,4.00
2019-05-22T05:33:16.346Z,3.83
2019-05-22T05:38:23.508Z,3.87
2019-05-22T05:43:27.472Z,4.00
2019-05-22T05:48:33.106Z,3.83
2019-05-22T05:53:56.630Z,3.70
2019-05-22T05:59:02.464Z,3.77
2019-05-22T06:04:06.347Z,3.57
2019-05-22T06:09:13.550Z,4.23
2019-05-22T06:14:21.165Z,3.30
2019-05-22T06:19:26.006Z,3.50
2019-05-22T06:24:57.595Z,3.43
2019-05-22T06:30:13.338Z,4.20
2019-05-22T06:35:17.199Z,4.40
2019-05-22T06:40:21.269Z,4.20
2019-05-22T06:45:25.325Z,3.53
2019-05-22T06:50:29.260Z,3.67
2019-05-22T06:55:32.964Z,3.30
2019-05-22T07:00:37.429Z,3.10
2019-05-22T07:05:41.387Z,3.57
2019-05-22T07:10:45.402Z,4.17
2019-05-22T07:15:50.256Z,3.10
2019-05-22T07:20:56.639Z,3.10
2019-05-22T07:26:02.180Z,4.00
2019-05-22T07:31:07.782Z,4.17
2019-05-22T07:36:16.438Z,3.20
2019-05-22T07:41:17.133Z,3.20
2019-05-22T07:46:21.453Z,3.53
2019-05-22T07:51:25.222Z,4.17
2019-05-22T07:56:29.815Z,3.90
2019-05-22T08:01:33.589Z,3.57
2019-05-22T08:06:37.409Z,3.47
2019-05-22T08:11:41.471Z,4.57
2019-05-22T08:16:45.296Z,3.60
2019-05-22T08:21:49.090Z,3.87
2019-05-22T08:26:54.914Z,3.30
2019-05-22T08:31:58.346Z,3.90
2019-05-22T08:37:02.300Z,4.13
2019-05-22T08:42:07.236Z,3.73
2019-05-22T08:47:11.798Z,6.10
2019-05-22T08:52:23.477Z,3.40
2019-05-22T08:57:23.537Z,3.57
2019-05-22T09:02:27.398Z,3.20
2019-05-22T09:07:31.743Z,3.00
2019-05-22T09:12:35.638Z,4.10
2019-05-22T09:17:40.019Z,3.30
2019-05-22T09:22:45.867Z,2.80
2019-05-22T09:27:49.652Z,3.07
2019-05-22T09:32:54.102Z,3.13
2019-05-22T09:37:57.995Z,3.33
2019-05-22T09:43:02.314Z,3.23
2019-05-22T09:48:06.692Z,3.30
2019-05-22T09:53:10.589Z,3.47
2019-05-22T09:58:14.302Z,3.00
2019-05-22T10:03:18.565Z,2.80
2019-05-22T10:08:22.544Z,2.53
2019-05-22T10:13:29.090Z,2.50
2019-05-22T10:18:31.971Z,3.23
2019-05-22T10:23:35.854Z,3.27
2019-05-22T10:28:39.811Z,2.80
2019-05-22T10:33:44.056Z,2.80
2019-05-22T10:38:47.984Z,2.77
2019-05-22T10:43:51.795Z,3.23
2019-05-22T10:48:55.559Z,3.00
2019-05-22T10:53:59.693Z,2.80
2019-05-22T10:59:03.686Z,2.80
2019-05-22T11:04:07.451Z,3.10
2019-05-22T11:09:11.839Z,3.63
2019-05-22T11:14:15.621Z,4.17
2019-05-22T11:19:19.327Z,4.30
2019-05-22T11:24:23.008Z,4.27
2019-05-22T11:29:26.853Z,4.27
2019-05-22T11:34:30.602Z,4.33
2019-05-22T11:39:39.583Z,3.70
2019-05-22T11:44:40.377Z,4.13
2019-05-22T11:49:44.257Z,3.67
2019-05-22T11:54:48.004Z,3.10
2019-05-22T11:59:51.865Z,3.30
2019-05-22T12:04:55.644Z,3.63
2019-05-22T12:09:59.551Z,3.17
2019-05-22T12:15:03.867Z,3.80
2019-05-22T12:20:07.837Z,3.23
2019-05-22T12:25:12.157Z,3.03
2019-05-22T12:30:16.443Z,3.17
2019-05-22T12:35:20.597Z,3.43
2019-05-22T12:40:25.077Z,3.10
2019-05-22T12:45:29.677Z,3.30
2019-05-22T12:50:33.868Z,3.10
2019-05-22T12:55:37.700Z,5.03
2019-05-22T13:00:41.476Z,4.87
2019-05-22T13:05:45.324Z,4.87
2019-05-22T13:10:50.559Z,4.93
2019-05-22T13:15:54.329Z,4.30
2019-05-22T13:20:59.118Z,4.00
2019-05-22T13:26:04.015Z,4.37
2019-05-22T13:31:07.904Z,4.67
2019-05-22T13:36:12.891Z,3.80
2019-05-22T13:41:16.684Z,4.30
2019-05-22T13:46:20.453Z,4.73
2019-05-22T13:51:24.313Z,3.67
2019-05-22T13:56:28.713Z,4.80
2019-05-22T14:01:33.410Z,3.80
2019-05-22T14:06:37.421Z,3.60
2019-05-22T14:11:41.333Z,3.70
2019-05-22T14:16:49.224Z,4.40
2019-05-22T14:21:52.110Z,4.00
2019-05-22T14:26:56.269Z,4.27
2019-05-22T14:32:00.210Z,4.03
2019-05-22T14:37:05.111Z,3.83
2019-05-22T14:42:10.155Z,3.53
2019-05-22T14:47:16.523Z,3.90
2019-05-22T14:52:20.159Z,3.67
2019-05-22T14:57:26.580Z,3.80
2019-05-22T15:02:30.968Z,3.83
2019-05-22T15:07:34.801Z,4.20
2019-05-22T15:12:39.512Z,4.53
2019-05-22T15:17:46.194Z,3.70
2019-05-22T15:22:50.138Z,3.87
2019-05-22T15:27:54.267Z,3.60
2019-05-22T15:32:58.039Z,3.77
2019-05-22T15:38:10.468Z,4.40
2019-05-22T15:43:15.487Z,3.90
2019-05-22T15:48:27.127Z,4.60
2019-05-22T15:53:31.006Z,4.03
2019-05-22T15:58:35.262Z,3.90
2019-05-22T16:03:39.350Z,4.50
2019-05-22T16:08:43.230Z,3.60
2019-05-22T16:13:47.039Z,3.23
2019-05-22T16:18:51.977Z,3.80
2019-05-22T16:23:56.067Z,4.03
2019-05-22T16:29:00.308Z,4.03
2019-05-22T16:34:04.252Z,3.80
2019-05-22T16:39:08.777Z,4.60
2019-05-22T16:44:12.825Z,4.20
2019-05-22T16:49:16.947Z,4.20
2019-05-22T16:54:21.262Z,4.53
2019-05-22T16:59:25.398Z,3.97
2019-05-22T17:04:29.302Z,3.90
2019-05-22T17:09:33.538Z,4.00
2019-05-22T17:14:37.692Z,4.40
2019-05-22T17:19:41.698Z,4.63
2019-05-22T17:24:45.919Z,3.80
2019-05-22T17:29:50.329Z,4.10
2019-05-22T17:34:54.289Z,3.87
2019-05-22T17:39:58.173Z,4.00
2019-05-22T17:45:02.378Z,4.00
2019-05-22T17:50:07.327Z,4.17
2019-05-22T17:55:11.481Z,4.87
2019-05-22T18:00:22.742Z,4.27
2019-05-22T18:05:27.060Z,4.10
2019-05-22T18:10:33.121Z,3.80
2019-05-22T18:15:37.317Z,4.20
2019-05-22T18:20:43.713Z,4.57
2019-05-22T18:25:46.862Z,4.07
2019-05-22T18:30:51.258Z,4.20
2019-05-22T18:35:55.056Z,4.13
2019-05-22T18:40:58.954Z,4.53
2019-05-22T18:46:02.839Z,4.40
2019-05-22T18:51:07.864Z,4.07
2019-05-22T18:56:13.340Z,3.93
2019-05-22T19:01:17.228Z,3.60
2019-05-22T19:06:30.285Z,4.60
2019-05-22T19:11:26.570Z,4.50
2019-05-22T19:16:30.434Z,4.50
2019-05-22T19:21:34.339Z,4.40
2019-05-22T19:26:38.594Z,4.80
2019-05-22T19:31:42.445Z,5.00
2019-05-22T19:36:46.345Z,6.90
2019-05-22T19:42:01.929Z,5.23
2019-05-22T19:46:56.508Z,5.03
2019-05-22T19:52:00.357Z,5.13
2019-05-22T19:57:04.585Z,5.40
2019-05-22T20:02:10.465Z,5.00
2019-05-22T20:07:14.208Z,4.73
2019-05-22T20:12:18.013Z,6.70
2019-05-22T20:17:21.779Z,4.47
2019-05-22T20:22:26.465Z,4.43
2019-05-22T20:27:31.286Z,3.97
2019-05-22T20:32:35.761Z,4.80
2019-05-22T20:37:41.548Z,5.30
2019-05-22T20:42:46.579Z,4.27
2019-05-22T20:47:54.266Z,4.77
2019-05-22T20:52:58.276Z,4.93
2019-05-22T20:58:03.933Z,5.50
2019-05-22T21:03:08.227Z,4.70
2019-05-22T21:08:12.273Z,4.37
2019-05-22T21:13:18.529Z,4.30
2019-05-22T21:18:27.705Z,5.50
2019-05-22T21:23:32.530Z,5.13
2019-05-22T21:28:37.653Z,4.37
2019-05-22T21:33:41.445Z,4.17
2019-05-22T21:38:49.152Z,4.30
2019-05-22T21:43:53.332Z,4.17
2019-05-22T21:48:58.628Z,3.77
2019-05-22T21:54:02.763Z,4.00
2019-05-22T21:59:07.321Z,4.07
2019-05-22T22:04:19.841Z,3.23
2019-05-22T22:09:26.658Z,3.20
2019-05-22T22:14:30.806Z,3.63
2019-05-22T22:19:36.443Z,2.93
2019-05-22T22:24:40.277Z,3.57
2019-05-22T22:29:44.105Z,3.10
2019-05-22T22:34:49.712Z,3.47
2019-05-22T22:39:56.768Z,3.10
2019-05-22T22:45:00.956Z,3.23
2019-05-22T22:50:07.052Z,3.73
2019-05-22T22:55:11.615Z,3.20
2019-05-22T23:00:18.494Z,3.37
2019-05-22T23:05:22.949Z,3.07
2019-05-22T23:10:26.618Z,3.23
2019-05-22T23:15:30.445Z,3.40
2019-05-22T23:20:34.080Z,2.60
2019-05-22T23:25:39.916Z,2.90
2019-05-22T23:30:43.638Z,2.73
2019-05-22T23:35:47.606Z,2.67
2019-05-22T23:40:52.238Z,2.80
2019-05-22T23:45:56.555Z,2.80
2019-05-22T23:51:00.544Z,2.40
2019-05-22T23:56:04.656Z,2.87
